Time;durP1;ratioP1;P1;durP2;ratioP2;P2;SDS_P1;SDS_P2;PMS_P1;PMS_P2;Temp;Humidity;BMP_temperature;BMP_pressure;BME280_temperature;BME280_humidity;BME280_pressure;Samples;Min_cycle;Max_cycle;Signal;HPM_P1;HPM_P2
2023/12/02 00:02:07;;;;;;;24.90;14.77;;;;;;;-1.87;95.33;101036.75;5044646;28;20060;-62
2023/12/02 00:04:32;;;;;;;26.48;14.98;;;;;;;-1.88;95.46;101035.91;5044784;28;20024;-62
2023/12/02 00:06:57;;;;;;;24.10;14.35;;;;;;;-1.86;95.75;101039.31;5048552;28;20389;-62
2023/12/02 00:09:23;;;;;;;25.38;15.50;;;;;;;-1.84;96.29;101039.28;5051662;28;20029;-62
2023/12/02 00:11:49;;;;;;;25.27;15.75;;;;;;;-1.86;95.91;101034.13;5045979;28;20049;-62
2023/12/02 00:14:15;;;;;;;23.08;14.98;;;;;;;-1.86;96.01;101028.91;5047256;28;20051;-62
2023/12/02 00:16:40;;;;;;;23.08;14.30;;;;;;;-1.86;95.94;101031.50;5050339;28;20022;-62
2023/12/02 00:19:05;;;;;;;23.88;14.73;;;;;;;-1.87;95.83;101023.72;5049220;28;20025;-62
2023/12/02 00:21:31;;;;;;;24.15;14.23;;;;;;;-1.88;95.60;101017.69;5045753;28;20034;-62
2023/12/02 00:23:56;;;;;;;26.00;15.75;;;;;;;-1.88;94.85;101017.69;5046243;28;20096;-62
2023/12/02 00:26:21;;;;;;;25.27;15.55;;;;;;;-1.89;94.61;101022.91;5046429;28;20037;-62
2023/12/02 00:28:47;;;;;;;26.30;15.32;;;;;;;-1.89;94.91;101039.38;5046873;28;20033;-62
2023/12/02 00:31:12;;;;;;;24.85;15.23;;;;;;;-1.88;95.01;101032.44;5041539;28;20021;-62
2023/12/02 00:33:37;;;;;;;25.27;14.75;;;;;;;-1.86;95.17;101036.72;5048208;28;20063;-62
2023/12/02 00:36:03;;;;;;;24.27;14.80;;;;;;;-1.85;95.72;101034.97;5042767;28;20026;-62
2023/12/02 00:38:28;;;;;;;24.38;15.20;;;;;;;-1.86;95.35;101031.50;5047413;28;20040;-62
2023/12/02 00:40:53;;;;;;;21.92;14.48;;;;;;;-1.84;95.62;101039.28;5045138;28;20036;-62
2023/12/02 00:43:18;;;;;;;23.33;14.45;;;;;;;-1.83;95.68;101034.94;5044617;28;20025;-62
2023/12/02 00:45:44;;;;;;;24.33;14.65;;;;;;;-1.83;95.13;101035.81;5043752;28;20048;-62
2023/12/02 00:48:09;;;;;;;24.65;15.20;;;;;;;-1.84;94.38;101044.50;5047305;28;20501;-62
2023/12/02 00:50:34;;;;;;;24.15;14.25;;;;;;;-1.86;94.25;101035.88;5043525;28;20492;-62
2023/12/02 00:53:00;;;;;;;23.23;14.73;;;;;;;-1.88;94.91;101035.06;5046978;28;20032;-62
2023/12/02 00:55:25;;;;;;;23.08;14.50;;;;;;;-1.88;94.08;101035.91;5045249;28;20140;-62
2023/12/02 00:57:51;;;;;;;23.17;13.95;;;;;;;-1.88;94.14;101040.25;5043476;28;20049;-62
2023/12/02 01:00:16;;;;;;;25.00;14.98;;;;;;;-1.87;94.31;101039.34;5046468;28;20136;-61
2023/12/02 01:02:42;;;;;;;23.27;14.77;;;;;;;-1.88;94.47;101045.47;5043742;28;20079;-62
2023/12/02 01:05:08;;;;;;;22.05;13.57;;;;;;;-1.88;94.83;101033.31;5046627;28;20389;-62
2023/12/02 01:07:33;;;;;;;23.73;15.02;;;;;;;-1.85;95.53;101034.97;5042724;28;20041;-62
2023/12/02 01:09:58;;;;;;;22.95;14.48;;;;;;;-1.83;94.97;101029.72;5050069;28;20428;-62
2023/12/02 01:12:24;;;;;;;24.15;15.35;;;;;;;-1.82;93.92;101031.44;5049831;28;20036;-62
2023/12/02 01:14:49;;;;;;;22.65;14.23;;;;;;;-1.86;94.28;101030.66;5053628;28;20025;-61
2023/12/02 01:17:14;;;;;;;21.55;14.55;;;;;;;-1.87;93.69;101034.16;5045231;28;20029;-62
2023/12/02 01:19:40;;;;;;;22.60;15.30;;;;;;;-1.88;93.73;101032.44;5044446;28;20032;-61
2023/12/02 01:22:05;;;;;;;27.65;14.63;;;;;;;-1.91;93.05;101025.56;5050446;28;20114;-62
2023/12/02 01:24:30;;;;;;;23.40;15.40;;;;;;;-1.92;93.10;101023.81;5049147;28;20025;-61
2023/12/02 01:26:55;;;;;;;23.05;14.55;;;;;;;-1.91;93.63;101030.75;5048507;28;20028;-61
2023/12/02 01:29:21;;;;;;;24.17;14.88;;;;;;;-1.91;93.40;101025.56;5046813;28;20104;-61
2023/12/02 01:31:46;;;;;;;23.38;14.93;;;;;;;-1.93;93.65;101026.47;5051509;28;20032;-61
2023/12/02 01:34:11;;;;;;;22.65;14.50;;;;;;;-1.91;93.96;101028.16;5044886;28;20044;-61
2023/12/02 01:36:36;;;;;;;25.50;15.65;;;;;;;-1.88;94.13;101029.84;5047007;28;20025;-62
2023/12/02 01:39:02;;;;;;;23.95;14.48;;;;;;;-1.90;93.48;101034.22;5050276;28;20039;-61
2023/12/02 01:41:27;;;;;;;24.40;14.63;;;;;;;-1.93;94.10;101042.97;5047131;28;20443;-62
2023/12/02 01:43:52;;;;;;;24.88;15.18;;;;;;;-1.93;94.79;101040.34;5047914;28;20033;-61
2023/12/02 01:46:18;;;;;;;26.77;16.35;;;;;;;-1.91;94.13;101045.53;5046265;28;20066;-62
2023/12/02 01:48:44;;;;;;;24.08;14.80;;;;;;;-1.89;95.09;101048.94;5048824;28;20109;-62
2023/12/02 01:51:09;;;;;;;24.90;15.32;;;;;;;-1.88;95.37;101056.72;5043980;28;20120;-61
2023/12/02 01:53:35;;;;;;;25.25;15.77;;;;;;;-1.85;95.11;101058.41;5050821;28;20025;-62
2023/12/02 01:56:00;;;;;;;24.65;15.60;;;;;;;-1.83;94.30;101059.25;5046091;28;20049;-61
2023/12/02 01:58:25;;;;;;;26.02;15.60;;;;;;;-1.81;94.82;101054.84;5049968;28;20025;-62
2023/12/02 02:00:51;;;;;;;25.77;15.90;;;;;;;-1.81;94.61;101059.22;5052894;28;20026;-61
2023/12/02 02:03:16;;;;;;;26.58;15.40;;;;;;;-1.82;94.81;101050.53;5047000;28;20032;-62
2023/12/02 02:05:43;;;;;;;24.75;15.13;;;;;;;-1.81;94.88;101052.25;5048921;28;20386;-61
2023/12/02 02:08:09;;;;;;;25.10;15.25;;;;;;;-1.80;94.92;101056.53;5050045;28;20402;-61
2023/12/02 02:10:34;;;;;;;26.63;15.95;;;;;;;-1.77;95.22;101063.44;5047492;28;20035;-61
2023/12/02 02:12:59;;;;;;;25.55;15.90;;;;;;;-1.81;95.23;101054.00;5048217;28;20025;-61
2023/12/02 02:15:24;;;;;;;25.13;16.10;;;;;;;-1.81;95.19;101052.25;5049772;28;20032;-61
2023/12/02 02:17:50;;;;;;;24.05;15.40;;;;;;;-1.84;94.29;101054.91;5046054;28;20094;-62
2023/12/02 02:20:15;;;;;;;25.73;15.88;;;;;;;-1.86;94.52;101048.88;5048543;28;20116;-62
2023/12/02 02:22:40;;;;;;;23.38;14.80;;;;;;;-1.88;94.27;101051.53;5052086;28;20474;-61
2023/12/02 02:25:06;;;;;;;24.58;15.32;;;;;;;-1.88;94.38;101059.34;5045175;28;20123;-61
2023/12/02 02:27:34;;;;;;;27.05;16.30;;;;;;;-1.85;95.22;101050.59;5049225;28;20390;-61
2023/12/02 02:29:59;;;;;;;24.77;16.42;;;;;;;-1.84;95.28;101060.13;5048149;28;20036;-61
2023/12/02 02:32:24;;;;;;;23.77;15.05;;;;;;;-1.82;95.54;101055.72;5045471;28;20466;-61
2023/12/02 02:34:50;;;;;;;23.45;15.25;;;;;;;-1.80;95.61;101059.16;5048404;28;20032;-61
2023/12/02 02:37:15;;;;;;;24.02;15.45;;;;;;;-1.80;95.43;101050.50;5045451;28;20025;-61
2023/12/02 02:39:40;;;;;;;24.77;15.45;;;;;;;-1.80;95.49;101059.16;5046648;28;20490;-62
2023/12/02 02:42:06;;;;;;;24.23;14.93;;;;;;;-1.82;95.33;101062.69;5048713;28;20080;-61
2023/12/02 02:44:33;;;;;;;21.27;14.18;;;;;;;-1.82;95.52;101065.28;5048331;28;20496;-61
2023/12/02 02:46:58;;;;;;;23.33;14.93;;;;;;;-1.81;96.03;101065.25;5044760;28;20045;-61
2023/12/02 02:49:23;;;;;;;26.52;15.98;;;;;;;-1.78;96.02;101069.53;5048589;28;20450;-61
2023/12/02 02:51:48;;;;;;;28.48;15.88;;;;;;;-1.78;96.05;101073.00;5045529;28;20033;-61
2023/12/02 02:54:14;;;;;;;24.33;15.50;;;;;;;-1.77;95.87;101076.47;5047861;28;20067;-62
2023/12/02 02:56:39;;;;;;;25.73;15.52;;;;;;;-1.76;96.49;101076.44;5046996;28;20056;-61
2023/12/02 02:59:04;;;;;;;26.80;16.40;;;;;;;-1.76;96.14;101075.59;5048307;28;20096;-61
2023/12/02 03:01:30;;;;;;;26.20;16.50;;;;;;;-1.77;96.32;101076.47;5046849;28;20116;-61
2023/12/02 03:03:55;;;;;;;26.30;16.58;;;;;;;-1.76;96.99;101086.00;5043944;28;20458;-61
2023/12/02 03:06:21;;;;;;;27.05;16.55;;;;;;;-1.77;96.72;101082.53;5046016;28;20075;-61
2023/12/02 03:08:46;;;;;;;25.88;15.65;;;;;;;-1.75;96.37;101077.28;5048769;28;20098;-61
2023/12/02 03:11:11;;;;;;;25.52;15.57;;;;;;;-1.73;96.52;101078.13;5045533;28;20446;-61
2023/12/02 03:13:37;;;;;;;26.08;16.30;;;;;;;-1.71;96.01;101081.53;5048161;28;20036;-61
2023/12/02 03:16:03;;;;;;;26.33;16.40;;;;;;;-1.72;96.09;101082.44;5050596;28;20119;-61
2023/12/02 03:18:28;;;;;;;25.17;14.88;;;;;;;-1.73;95.97;101076.38;5048071;28;20033;-61
2023/12/02 03:20:53;;;;;;;24.35;15.73;;;;;;;-1.73;95.71;101078.97;5048623;28;20036;-61
2023/12/02 03:23:19;;;;;;;22.35;14.25;;;;;;;-1.71;95.95;101077.19;5050684;28;20024;-61
2023/12/02 03:25:44;;;;;;;24.65;15.27;;;;;;;-1.71;95.68;101078.94;5038975;28;20108;-61
2023/12/02 03:28:11;;;;;;;25.77;16.08;;;;;;;-1.71;95.05;101087.59;5047570;28;20025;-61
2023/12/02 03:30:37;;;;;;;25.15;15.70;;;;;;;-1.70;95.16;101083.25;5043578;28;20116;-60
2023/12/02 03:33:02;;;;;;;24.88;15.48;;;;;;;-1.71;95.38;101077.19;5044214;28;20029;-60
2023/12/02 03:35:27;;;;;;;26.35;15.43;;;;;;;-1.69;96.04;101080.59;5045571;28;20033;-61
2023/12/02 03:37:52;;;;;;;23.25;15.82;;;;;;;-1.69;95.97;101077.16;5047195;28;20390;-60
2023/12/02 03:40:18;;;;;;;23.52;15.15;;;;;;;-1.69;95.00;101078.00;5047460;28;20039;-60
2023/12/02 03:42:43;;;;;;;23.95;15.30;;;;;;;-1.69;95.30;101078.00;5046280;28;20289;-60
2023/12/02 03:45:09;;;;;;;23.38;15.68;;;;;;;-1.69;94.63;101080.59;5044993;28;20033;-59
2023/12/02 03:47:35;;;;;;;22.52;15.18;;;;;;;-1.65;95.27;101078.78;5046129;28;20547;-59
2023/12/02 03:50:00;;;;;;;23.92;15.25;;;;;;;-1.63;95.37;101078.75;5043682;28;20025;-60
2023/12/02 03:52:26;;;;;;;23.27;14.93;;;;;;;-1.62;94.71;101086.53;5048232;28;20512;-60
2023/12/02 03:54:51;;;;;;;25.58;16.30;;;;;;;-1.60;94.34;101089.09;5046258;28;20028;-59
2023/12/02 03:57:16;;;;;;;25.58;16.48;;;;;;;-1.57;94.87;101078.63;5050048;28;20045;-59
2023/12/02 03:59:41;;;;;;;24.70;15.80;;;;;;;-1.55;94.69;101085.53;5049742;28;20099;-57
2023/12/02 04:02:07;;;;;;;23.77;15.27;;;;;;;-1.55;94.26;101092.47;5050770;28;20025;-58
2023/12/02 04:04:33;;;;;;;25.15;15.75;;;;;;;-1.55;93.92;101105.50;5049884;28;20151;-58
2023/12/02 04:06:58;;;;;;;25.63;16.30;;;;;;;-1.52;94.23;101114.09;5051395;28;20025;-58
2023/12/02 04:09:23;;;;;;;24.88;16.67;;;;;;;-1.52;94.70;101092.41;5047115;28;20024;-59
2023/12/02 04:11:49;;;;;;;24.02;16.00;;;;;;;-1.51;94.10;101112.38;5050439;28;20024;-60
2023/12/02 04:14:14;;;;;;;26.77;15.75;;;;;;;-1.52;94.05;101114.09;5047154;28;20051;-59
2023/12/02 04:16:43;;;;;;;23.50;15.63;;;;;;;-1.54;93.93;101099.41;5047840;28;20017;-59
2023/12/02 04:19:09;;;;;;;24.90;16.20;;;;;;;-1.53;94.39;101116.75;5046632;28;20478;-60
2023/12/02 04:21:41;;;;;;;25.58;16.38;;;;;;;-1.53;94.53;101116.75;5044651;28;20064;-59
2023/12/02 04:24:06;;;;;;;27.02;15.88;;;;;;;-1.52;94.29;101127.13;5046675;28;20033;-59
2023/12/02 04:26:32;;;;;;;24.50;15.85;;;;;;;-1.49;94.03;101121.84;5041947;28;20048;-59
2023/12/02 04:28:57;;;;;;;26.00;16.52;;;;;;;-1.49;93.46;101124.44;5043195;28;20025;-60
2023/12/02 04:31:22;;;;;;;24.55;16.10;;;;;;;-1.47;92.83;101128.78;5045588;28;20362;-60
2023/12/02 04:33:48;;;;;;;24.90;16.40;;;;;;;-1.45;94.04;101132.19;5046578;28;20078;-59
2023/12/02 04:36:14;;;;;;;25.55;16.50;;;;;;;-1.43;93.66;101133.91;5043716;28;20653;-59
2023/12/02 04:38:40;;;;;;;28.20;17.08;;;;;;;-1.43;93.58;101127.81;5043828;28;20021;-60
2023/12/02 04:41:05;;;;;;;25.58;15.40;;;;;;;-1.41;94.11;101129.50;5044204;28;20108;-59
2023/12/02 04:43:30;;;;;;;24.48;15.88;;;;;;;-1.39;94.25;101121.66;5052345;28;20052;-59
2023/12/02 04:45:56;;;;;;;25.70;16.25;;;;;;;-1.37;94.72;101118.09;5050986;28;20109;-59
2023/12/02 04:48:21;;;;;;;26.35;16.73;;;;;;;-1.37;94.42;101125.91;5051186;28;20026;-59
2023/12/02 04:50:47;;;;;;;26.90;16.98;;;;;;;-1.36;93.59;101132.84;5053684;28;20121;-59
2023/12/02 04:53:12;;;;;;;26.25;16.63;;;;;;;-1.36;93.10;101125.03;5050023;28;20112;-59
2023/12/02 04:55:37;;;;;;;25.33;16.50;;;;;;;-1.34;93.78;101136.28;5048129;28;20462;-59
2023/12/02 04:58:03;;;;;;;23.38;15.55;;;;;;;-1.33;93.14;101132.78;5048713;28;20440;-59
2023/12/02 05:00:28;;;;;;;25.20;16.10;;;;;;;-1.33;92.92;101135.41;5049246;28;20434;-59
2023/12/02 05:02:54;;;;;;;25.17;16.40;;;;;;;-1.33;93.14;101138.00;5049133;28;20032;-60
2023/12/02 05:05:20;;;;;;;24.67;16.63;;;;;;;-1.32;93.68;101137.13;5051542;28;20032;-59
2023/12/02 05:07:45;;;;;;;25.33;17.00;;;;;;;-1.31;93.64;101146.63;5048483;28;20029;-60
2023/12/02 05:10:11;;;;;;;26.48;16.90;;;;;;;-1.31;93.44;101137.97;5051104;28;20017;-61
2023/12/02 05:12:36;;;;;;;26.88;17.25;;;;;;;-1.34;92.76;101144.09;5051686;28;20031;-60
2023/12/02 05:15:03;;;;;;;25.15;16.30;;;;;;;-1.39;92.66;101135.53;5048654;28;20037;-60
2023/12/02 05:17:29;;;;;;;25.70;17.20;;;;;;;-1.36;93.06;101151.09;5050448;28;20017;-61
2023/12/02 05:19:55;;;;;;;24.33;16.25;;;;;;;-1.35;92.99;101154.53;5046512;28;20094;-60
2023/12/02 05:22:20;;;;;;;24.98;16.13;;;;;;;-1.32;93.30;101167.50;5050644;28;20021;-60
2023/12/02 05:24:45;;;;;;;26.70;16.75;;;;;;;-1.33;93.19;101161.44;5048418;28;20021;-60
2023/12/02 05:27:11;;;;;;;26.83;17.20;;;;;;;-1.34;93.77;101162.34;5047239;28;20025;-60
2023/12/02 05:29:36;;;;;;;24.98;16.48;;;;;;;-1.32;93.81;101167.50;5047484;28;20069;-60
2023/12/02 05:32:01;;;;;;;24.35;16.13;;;;;;;-1.35;93.17;101170.19;5046054;28;20056;-60
2023/12/02 05:34:27;;;;;;;25.98;16.65;;;;;;;-1.37;92.72;101167.59;5048466;28;20120;-60
2023/12/02 05:36:52;;;;;;;24.33;15.95;;;;;;;-1.38;93.40;101158.09;5049381;28;20474;-60
2023/12/02 05:39:17;;;;;;;26.00;16.40;;;;;;;-1.40;93.04;101170.31;5046844;28;20032;-61
2023/12/02 05:41:42;;;;;;;24.85;15.65;;;;;;;-1.42;93.02;101158.19;5048486;28;20029;-60
2023/12/02 05:44:09;;;;;;;27.65;16.90;;;;;;;-1.46;92.68;101161.75;5047321;28;20116;-60
2023/12/02 05:46:34;;;;;;;24.80;16.38;;;;;;;-1.46;93.33;101151.34;5047641;28;20393;-60
2023/12/02 05:48:59;;;;;;;23.45;16.02;;;;;;;-1.46;93.56;101161.75;5051149;28;20025;-60
2023/12/02 05:51:26;;;;;;;26.77;17.00;;;;;;;-1.47;93.96;101150.47;5048393;28;20055;-60
2023/12/02 05:53:51;;;;;;;26.02;16.50;;;;;;;-1.45;94.19;101148.69;5050025;28;20029;-60
2023/12/02 05:56:19;;;;;;;26.55;16.73;;;;;;;-1.46;93.94;101154.78;5051799;28;20053;-60
2023/12/02 05:58:44;;;;;;;24.95;17.10;;;;;;;-1.49;93.76;101155.72;5048926;28;20036;-60
2023/12/02 06:01:10;;;;;;;26.02;16.92;;;;;;;-1.51;93.67;101169.66;5047844;28;20428;-60
2023/12/02 06:03:35;;;;;;;25.80;16.00;;;;;;;-1.54;93.98;101190.56;5051465;28;20030;-60
2023/12/02 06:06:01;;;;;;;23.77;15.48;;;;;;;-1.54;94.22;101191.41;5049272;28;20044;-60
2023/12/02 06:08:26;;;;;;;25.00;16.40;;;;;;;-1.54;94.63;101199.22;5047023;28;20036;-60
2023/12/02 06:10:51;;;;;;;26.67;16.85;;;;;;;-1.53;95.17;101193.16;5049258;28;20048;-60
2023/12/02 06:13:16;;;;;;;26.92;17.50;;;;;;;-1.54;94.43;101191.41;5046566;28;20037;-60
2023/12/02 06:15:42;;;;;;;24.88;16.23;;;;;;;-1.54;94.25;101201.84;5053363;28;20035;-60
2023/12/02 06:18:07;;;;;;;27.08;18.05;;;;;;;-1.55;95.10;101183.63;5051507;28;20064;-59
2023/12/02 06:20:32;;;;;;;28.73;17.38;;;;;;;-1.55;94.75;101184.50;5051427;28;20029;-60
2023/12/02 06:22:58;;;;;;;25.50;16.63;;;;;;;-1.55;95.09;101194.06;5049796;28;20113;-61
2023/12/02 06:25:23;;;;;;;23.60;16.08;;;;;;;-1.55;95.03;101192.31;5048120;28;20067;-60
2023/12/02 06:27:48;;;;;;;28.70;17.80;;;;;;;-1.57;94.74;101188.03;5046642;28;20018;-61
2023/12/02 06:30:18;;;;;;;28.52;16.65;;;;;;;-1.58;94.91;101204.53;5051625;28;20041;-60
2023/12/02 06:32:43;;;;;;;25.95;17.10;;;;;;;-1.61;94.74;101207.22;5046156;28;20079;-60
2023/12/02 06:35:09;;;;;;;25.13;15.98;;;;;;;-1.61;94.78;101207.22;5049457;28;20033;-60
2023/12/02 06:37:34;;;;;;;27.90;17.40;;;;;;;-1.62;94.99;101210.72;5049362;28;20032;-61
2023/12/02 06:40:00;;;;;;;26.33;17.35;;;;;;;-1.61;95.46;101204.63;5047557;28;20056;-60
2023/12/02 06:42:25;;;;;;;28.15;17.23;;;;;;;-1.64;95.27;101204.69;5046199;28;20109;-59
2023/12/02 06:44:51;;;;;;;27.90;16.98;;;;;;;-1.65;95.34;101211.59;5049916;28;20466;-59
2023/12/02 06:47:16;;;;;;;27.23;17.48;;;;;;;-1.64;95.31;101215.09;5045283;28;20471;-60
2023/12/02 06:49:41;;;;;;;26.42;16.75;;;;;;;-1.63;95.72;101219.41;5048719;28;20084;-59
2023/12/02 06:52:07;;;;;;;25.95;16.63;;;;;;;-1.65;95.63;101223.78;5045261;28;20063;-59
2023/12/02 06:54:36;;;;;;;27.60;16.38;;;;;;;-1.66;95.84;101224.69;5043588;28;20108;-59
2023/12/02 06:57:02;;;;;;;;;;;;;;;-1.54;96.36;101224.44;5040606;28;20068;-60
2023/12/02 06:59:28;;;;;;;24.45;15.40;;;;;;;-1.66;95.44;101228.16;5048346;28;19959;-60
2023/12/02 07:01:53;;;;;;;26.77;16.42;;;;;;;-1.67;96.02;101234.22;5044918;28;20028;-62
2023/12/02 07:04:18;;;;;;;25.98;16.40;;;;;;;-1.68;96.31;101240.34;5048494;28;20064;-60
2023/12/02 07:06:43;;;;;;;27.40;16.88;;;;;;;-1.70;96.05;101242.97;5047259;28;20091;-62
2023/12/02 07:09:11;;;;;;;25.48;15.85;;;;;;;-1.69;96.26;101241.22;5044943;28;20043;-61
2023/12/02 07:11:36;;;;;;;26.30;16.67;;;;;;;-1.70;96.83;101255.13;5039692;28;20482;-61
2023/12/02 07:14:03;;;;;;;27.75;17.23;;;;;;;-1.71;96.74;101254.28;5049208;28;20039;-61
2023/12/02 07:16:28;;;;;;;28.05;17.75;;;;;;;-1.76;96.86;101253.50;5049973;28;20116;-61
2023/12/02 07:18:53;;;;;;;27.00;17.50;;;;;;;-1.78;97.18;101252.69;5045763;28;20128;-61
2023/12/02 07:21:18;;;;;;;25.13;16.67;;;;;;;-1.78;97.41;101262.22;5046322;28;20351;-62
2023/12/02 07:23:44;;;;;;;28.30;17.40;;;;;;;-1.83;97.21;101267.53;5046327;28;20040;-61
2023/12/02 07:26:10;;;;;;;29.05;17.85;;;;;;;-1.87;97.49;101269.31;5043145;28;20021;-62
2023/12/02 07:28:35;;;;;;;29.20;18.15;;;;;;;-1.89;97.41;101273.69;5040479;28;20512;-61
2023/12/02 07:31:00;;;;;;;29.65;17.80;;;;;;;-1.91;97.70;101266.81;5036181;28;20026;-61
2023/12/02 07:33:26;;;;;;;27.92;18.13;;;;;;;-1.96;98.19;101272.09;5038925;28;20029;-61
2023/12/02 07:35:51;;;;;;;31.02;18.52;;;;;;;-1.98;98.20;101267.78;5041034;28;20390;-61
2023/12/02 07:38:16;;;;;;;29.65;18.75;;;;;;;-2.02;98.74;101268.75;5046479;28;20120;-61
2023/12/02 07:40:42;;;;;;;27.83;16.77;;;;;;;-2.05;99.03;101267.91;5043248;28;20031;-61
2023/12/02 07:43:07;;;;;;;28.63;17.95;;;;;;;-2.08;98.79;101269.72;5042426;28;20033;-61
2023/12/02 07:45:32;;;;;;;30.38;18.95;;;;;;;-2.09;99.29;101265.38;5047009;28;20431;-61
2023/12/02 07:47:57;;;;;;;29.17;18.25;;;;;;;-2.14;98.92;101262.84;5047900;28;20083;-61
2023/12/02 07:50:23;;;;;;;28.13;17.52;;;;;;;-2.18;98.98;101261.22;5047738;28;20186;-61
2023/12/02 07:52:49;;;;;;;31.40;19.50;;;;;;;-2.21;99.31;101261.25;5045517;28;20025;-60
2023/12/02 07:55:14;;;;;;;30.40;18.67;;;;;;;-2.20;99.22;101264.69;5046945;28;20021;-61
2023/12/02 07:57:39;;;;;;;27.73;17.33;;;;;;;-2.21;99.37;101269.06;5043337;28;20071;-61
2023/12/02 08:00:07;;;;;;;29.50;17.70;;;;;;;-2.21;99.70;101281.19;5046267;28;20036;-60
2023/12/02 08:02:33;;;;;;;28.60;17.15;;;;;;;-2.22;99.34;101293.34;5046220;28;20043;-61
2023/12/02 08:04:58;;;;;;;27.88;17.55;;;;;;;-2.21;99.77;101295.09;5043970;28;20482;-60
2023/12/02 08:07:23;;;;;;;29.38;17.80;;;;;;;-2.22;99.71;101298.56;5045671;28;20439;-60
2023/12/02 08:09:49;;;;;;;30.23;17.90;;;;;;;-2.19;100.00;101298.50;5046686;28;20044;-61
2023/12/02 08:12:15;;;;;;;28.38;17.38;;;;;;;-2.19;99.92;101297.66;5045336;28;20032;-61
2023/12/02 08:14:40;;;;;;;29.38;17.85;;;;;;;-2.20;99.51;101301.97;5046171;28;20470;-59
2023/12/02 08:17:06;;;;;;;28.00;17.55;;;;;;;-2.20;99.72;101304.59;5048999;28;20079;-60
2023/12/02 08:19:31;;;;;;;29.08;17.58;;;;;;;-2.25;99.58;101304.69;5048615;28;20516;-60
2023/12/02 08:21:56;;;;;;;29.73;17.98;;;;;;;-2.26;99.59;101310.75;5049776;28;20062;-61
2023/12/02 08:24:22;;;;;;;28.20;17.63;;;;;;;-2.26;100.00;101328.13;5052352;28;20115;-59
2023/12/02 08:26:47;;;;;;;29.98;18.70;;;;;;;-2.28;99.86;101327.25;5048382;28;20048;-60
2023/12/02 08:29:13;;;;;;;27.40;16.77;;;;;;;-2.28;100.00;101324.66;5051404;28;20032;-60
2023/12/02 08:31:38;;;;;;;30.05;17.88;;;;;;;-2.31;99.85;101322.13;5051830;28;20024;-61
2023/12/02 08:34:04;;;;;;;31.35;18.90;;;;;;;-2.33;100.00;101337.75;5050666;28;20109;-59
2023/12/02 08:36:29;;;;;;;28.35;18.20;;;;;;;-2.31;100.00;101336.00;5054434;28;20047;-59
2023/12/02 08:38:55;;;;;;;31.15;16.98;;;;;;;-2.30;100.00;101337.72;5054755;28;20029;-61
2023/12/02 08:41:20;;;;;;;30.73;17.98;;;;;;;-2.30;100.00;101342.94;5053499;28;20466;-61
2023/12/02 08:43:45;;;;;;;29.75;18.17;;;;;;;-2.30;100.00;101347.25;5049860;28;20082;-60
2023/12/02 08:46:17;;;;;;;28.30;17.83;;;;;;;-2.28;100.00;101353.28;5051881;28;20025;-61
2023/12/02 08:48:43;;;;;;;30.10;17.95;;;;;;;-2.26;100.00;101351.53;5049540;28;20491;-59
2023/12/02 08:51:09;;;;;;;28.25;17.75;;;;;;;-2.24;100.00;101362.78;5051684;28;20032;-60
2023/12/02 08:53:34;;;;;;;29.52;17.38;;;;;;;-2.24;100.00;101358.44;5048251;28;20017;-59
2023/12/02 08:55:59;;;;;;;28.42;18.23;;;;;;;-2.22;100.00;101357.56;5051401;28;20045;-60
2023/12/02 08:58:25;;;;;;;31.60;19.15;;;;;;;-2.25;100.00;101356.72;5055735;28;20021;-59
2023/12/02 09:00:51;;;;;;;31.20;18.25;;;;;;;-2.20;100.00;101360.97;5055658;28;20541;-61
2023/12/02 09:03:16;;;;;;;31.17;18.38;;;;;;;-2.19;100.00;101360.97;5047910;28;20433;-60
2023/12/02 09:05:41;;;;;;;31.38;19.38;;;;;;;-2.13;100.00;101360.00;5050965;28;21363;-60
2023/12/02 09:08:07;;;;;;;31.85;18.48;;;;;;;-2.08;100.00;101359.06;5048274;28;20417;-60
2023/12/02 09:10:32;;;;;;;33.25;19.50;;;;;;;-2.01;100.00;101364.19;5048809;28;20116;-60
2023/12/02 09:12:57;;;;;;;36.03;20.80;;;;;;;-1.94;100.00;101365.78;5050043;28;20017;-61
2023/12/02 09:15:22;;;;;;;32.83;19.75;;;;;;;-1.90;100.00;101370.94;5050590;28;20020;-59
2023/12/02 09:18:07;;;;;;;32.57;19.73;;;;;;;-1.83;100.00;101369.06;5049735;28;20382;-60
2023/12/02 09:20:46;;;;;;;30.80;19.63;;;;;;;-1.73;100.00;101369.78;5049916;28;20346;-61
2023/12/02 09:23:14;;;;;;;31.83;19.10;;;;;;;-1.61;100.00;101368.72;5050953;28;20036;-61
2023/12/02 09:25:40;;;;;;;33.05;20.42;;;;;;;-1.56;100.00;101361.66;5050698;28;20033;-59
2023/12/02 09:28:05;;;;;;;32.03;20.08;;;;;;;-1.48;100.00;101365.00;5048331;28;20039;-59
2023/12/02 09:30:35;;;;;;;34.90;20.53;;;;;;;-1.40;100.00;101363.13;5046804;28;20029;-61
2023/12/02 09:33:01;;;;;;;32.47;19.88;;;;;;;-1.28;100.00;101367.22;5046482;28;20283;-60
2023/12/02 09:35:27;;;;;;;31.50;20.20;;;;;;;-1.22;100.00;101367.09;5047218;28;20025;-60
2023/12/02 09:37:55;;;;;;;33.42;19.55;;;;;;;-1.14;100.00;101374.78;5049076;28;20478;-59
2023/12/02 09:40:23;;;;;;;33.10;20.02;;;;;;;-1.06;99.40;101387.66;5049726;28;20713;-60
2023/12/02 09:43:04;;;;;;;32.65;19.23;;;;;;;-1.00;98.39;101388.41;5048733;28;20470;-58
2023/12/02 09:45:39;;;;;;;32.88;20.25;;;;;;;-0.92;99.16;101393.44;5045416;28;20024;-60
2023/12/02 09:48:11;;;;;;;29.88;19.20;;;;;;;-0.88;97.45;101394.25;5048714;28;20042;-59
2023/12/02 09:51:01;;;;;;;32.25;20.55;;;;;;;-0.79;99.11;101386.25;5047874;28;20025;-57
2023/12/02 09:53:52;;;;;;;30.08;19.27;;;;;;;-0.73;97.47;101393.97;5046503;28;20064;-60
2023/12/02 09:56:24;;;;;;;33.42;21.17;;;;;;;-0.67;97.10;101392.97;5046954;28;20049;-59
2023/12/02 09:58:54;;;;;;;31.05;19.83;;;;;;;-0.62;97.49;101391.94;5047588;28;20036;-60
2023/12/02 10:01:39;;;;;;;35.20;20.27;;;;;;;-0.60;96.95;101398.03;5047318;28;20029;-61
2023/12/02 10:04:21;;;;;;;34.30;20.00;;;;;;;-0.50;97.35;101393.47;5044002;28;20021;-60
2023/12/02 10:06:49;;;;;;;29.92;20.02;;;;;;;-0.42;97.24;101388.06;5048025;28;20112;-59
2023/12/02 10:09:23;;;;;;;32.17;20.10;;;;;;;-0.34;97.07;101375.69;5044219;28;20043;-60
2023/12/02 10:12:22;;;;;;;33.97;20.92;;;;;;;-0.24;96.99;101378.97;5046772;28;20033;-60
2023/12/02 10:14:59;;;;;;;33.17;20.88;;;;;;;-0.13;97.04;101382.19;5044249;28;20064;-60
2023/12/02 10:17:25;;;;;;;33.22;19.80;;;;;;;0.01;96.14;101381.00;5041771;28;20033;-61
2023/12/02 10:19:55;;;;;;;32.65;20.42;;;;;;;0.10;96.95;101378.16;5049760;28;20037;-61
2023/12/02 10:22:23;;;;;;;35.35;20.70;;;;;;;0.20;96.25;101384.00;5047374;28;20059;-61
2023/12/02 10:25:02;;;;;;;31.88;19.75;;;;;;;0.24;95.63;101386.53;5043946;28;20043;-61
2023/12/02 10:27:29;;;;;;;31.55;19.52;;;;;;;0.29;94.75;101391.63;5047774;28;20068;-61
2023/12/02 10:30:15;;;;;;;34.63;21.23;;;;;;;0.33;93.79;101394.16;5046014;28;20029;-61
2023/12/02 10:32:50;;;;;;;30.48;19.02;;;;;;;0.34;93.16;101392.38;5043220;28;20021;-61
2023/12/02 10:35:27;;;;;;;32.47;19.90;;;;;;;0.35;93.05;101399.31;5044019;28;20026;-61
2023/12/02 10:38:17;;;;;;;28.45;19.02;;;;;;;0.42;93.17;101394.78;5045113;28;20521;-61
2023/12/02 10:40:56;;;;;;;30.67;19.80;;;;;;;0.51;94.68;101400.63;5047441;28;20056;-61
2023/12/02 10:43:37;;;;;;;32.58;19.67;;;;;;;0.58;94.17;101397.88;5049281;28;20135;-61
2023/12/02 10:46:04;;;;;;;32.53;19.52;;;;;;;0.58;91.93;101411.78;5043568;28;20072;-61
2023/12/02 10:48:30;;;;;;;30.55;20.02;;;;;;;0.61;92.66;101392.56;5045870;28;20026;-62
2023/12/02 10:50:56;;;;;;;29.63;19.90;;;;;;;0.65;92.45;101407.25;5047084;28;20037;-61
2023/12/02 10:53:24;;;;;;;28.70;18.70;;;;;;;0.64;92.73;101406.41;5048014;28;20324;-61
2023/12/02 10:55:55;;;;;;;33.05;20.75;;;;;;;0.64;91.33;101410.78;5045733;28;20573;-62
2023/12/02 10:58:22;;;;;;;29.73;19.63;;;;;;;0.62;91.10;101400.38;5043322;28;20096;-62
2023/12/02 11:00:51;;;;;;;29.67;19.88;;;;;;;0.60;91.63;101404.78;5046923;28;20111;-62
2023/12/02 11:03:26;;;;;;;32.80;20.90;;;;;;;0.62;92.13;101394.28;5049114;28;20032;-62
2023/12/02 11:06:00;;;;;;;33.00;20.55;;;;;;;0.62;92.06;101396.91;5044103;28;20402;-54
2023/12/02 11:08:47;;;;;;;31.52;20.33;;;;;;;0.62;92.59;101394.28;5044039;28;20033;-58